createdAt,value
2022-09-12T00:00:03.177Z,78
2022-09-12T00:20:02.752Z,77
2022-09-12T00:40:03.498Z,77
2022-09-12T01:00:02.916Z,77
2022-09-12T01:20:02.966Z,77
2022-09-12T01:40:02.692Z,78
2022-09-12T02:00:03.152Z,78
2022-09-12T02:20:03.907Z,77
2022-09-12T02:40:02.555Z,77
2022-09-12T03:00:03.095Z,78
2022-09-12T03:20:02.635Z,79
2022-09-12T03:40:03.065Z,79
2022-09-12T04:00:02.586Z,79
2022-09-12T04:20:02.377Z,79
2022-09-12T04:40:02.941Z,79
2022-09-12T05:00:07.434Z,80
2022-09-12T05:20:02.780Z,79
2022-09-12T05:40:03.349Z,79
2022-09-12T06:00:03.016Z,79
2022-09-12T06:20:02.649Z,80
2022-09-12T06:40:03.133Z,81
2022-09-12T07:00:02.693Z,81
2022-09-12T07:20:02.541Z,80
2022-09-12T07:40:03.123Z,79
2022-09-12T08:00:02.834Z,77
2022-09-12T08:20:02.589Z,72
2022-09-12T08:40:03.036Z,68
2022-09-12T09:00:02.581Z,65
2022-09-12T09:20:03.125Z,62
2022-09-12T09:40:09.875Z,61
2022-09-12T10:00:02.372Z,59
2022-09-12T10:20:23.007Z,55
2022-09-12T10:40:02.745Z,54
2022-09-12T11:00:03.377Z,55
2022-09-12T11:20:03.083Z,51
2022-09-12T11:40:05.877Z,50
2022-09-12T12:00:02.599Z,49
2022-09-12T12:20:08.554Z,48
2022-09-12T12:40:03.579Z,49
2022-09-12T13:00:03.051Z,49
2022-09-12T13:20:28.860Z,49
2022-09-12T13:40:02.888Z,49
2022-09-12T14:00:06.930Z,50
2022-09-12T14:20:02.665Z,51
2022-09-12T14:40:03.481Z,51
2022-09-12T15:00:03.244Z,52
2022-09-12T15:20:03.135Z,52
2022-09-12T15:40:07.486Z,52
2022-09-12T16:00:06.976Z,53
2022-09-12T16:20:06.126Z,54
2022-09-12T16:40:03.145Z,55
2022-09-12T17:00:02.963Z,58
2022-09-12T17:20:02.651Z,60
2022-09-12T17:40:04.579Z,61
2022-09-12T18:00:04.090Z,62
2022-09-12T18:20:03.034Z,63
2022-09-12T18:40:02.742Z,64
2022-09-12T19:00:13.946Z,65
2022-09-12T19:20:02.481Z,66
2022-09-12T19:40:20.626Z,68
2022-09-12T20:00:03.324Z,68
2022-09-12T20:20:02.845Z,69
2022-09-12T20:40:03.494Z,69
2022-09-12T21:00:03.116Z,69
2022-09-12T21:20:08.018Z,70
2022-09-12T21:40:03.019Z,70
2022-09-12T22:00:03.028Z,70
2022-09-12T22:20:03.019Z,71
2022-09-12T22:40:02.857Z,71
2022-09-12T23:00:03.557Z,71
2022-09-12T23:20:03.426Z,72
2022-09-12T23:40:03.190Z,72
